sensor_id;sensor_type;location;lat;lon;timestamp;pressure;altitude;pressure_sealevel;temperature;humidity
42691;BME280;28306;55.744;37.578;2023-04-21T00:01:55;99969.22;;;20.68;16.73
42691;BME280;28306;55.744;37.578;2023-04-21T00:04:22;99967.16;;;20.63;16.51
42691;BME280;28306;55.744;37.578;2023-04-21T00:06:49;99962.44;;;20.59;16.62
42691;BME280;28306;55.744;37.578;2023-04-21T00:09:14;99963.50;;;20.58;16.84
42691;BME280;28306;55.744;37.578;2023-04-21T00:11:41;99965.50;;;20.62;17.05
42691;BME280;28306;55.744;37.578;2023-04-21T00:14:06;99960.34;;;20.61;16.78
42691;BME280;28306;55.744;37.578;2023-04-21T00:16:32;99962.81;;;20.62;16.48
42691;BME280;28306;55.744;37.578;2023-04-21T00:18:57;99972.16;;;20.66;16.67
42691;BME280;28306;55.744;37.578;2023-04-21T00:21:23;99966.19;;;20.76;16.72
42691;BME280;28306;55.744;37.578;2023-04-21T00:23:49;99963.06;;;20.91;16.72
42691;BME280;28306;55.744;37.578;2023-04-21T00:26:15;99961.06;;;20.86;16.48
42691;BME280;28306;55.744;37.578;2023-04-21T00:28:42;99959.28;;;20.80;17.10
42691;BME280;28306;55.744;37.578;2023-04-21T00:31:07;99961.75;;;20.82;16.78
42691;BME280;28306;55.744;37.578;2023-04-21T00:33:33;99962.09;;;20.74;16.76
42691;BME280;28306;55.744;37.578;2023-04-21T00:35:58;99960.78;;;20.76;16.69
42691;BME280;28306;55.744;37.578;2023-04-21T00:38:25;99960.22;;;20.86;16.63
42691;BME280;28306;55.744;37.578;2023-04-21T00:40:51;99950.09;;;20.81;16.77
42691;BME280;28306;55.744;37.578;2023-04-21T00:43:17;99947.25;;;20.76;16.74
42691;BME280;28306;55.744;37.578;2023-04-21T00:45:44;99945.84;;;20.74;16.72
42691;BME280;28306;55.744;37.578;2023-04-21T00:48:10;99944.44;;;20.71;16.69
42691;BME280;28306;55.744;37.578;2023-04-21T00:50:37;99941.94;;;20.69;16.75
42691;BME280;28306;55.744;37.578;2023-04-21T00:53:04;99937.38;;;20.51;16.60
42691;BME280;28306;55.744;37.578;2023-04-21T00:55:30;99942.75;;;20.40;16.85
42691;BME280;28306;55.744;37.578;2023-04-21T00:57:56;99941.09;;;20.39;16.92
42691;BME280;28306;55.744;37.578;2023-04-21T01:00:26;99935.81;;;20.44;17.11
42691;BME280;28306;55.744;37.578;2023-04-21T01:02:51;99943.75;;;20.57;16.83
42691;BME280;28306;55.744;37.578;2023-04-21T01:05:17;99944.44;;;20.71;16.40
42691;BME280;28306;55.744;37.578;2023-04-21T01:07:43;99939.59;;;20.73;16.44
42691;BME280;28306;55.744;37.578;2023-04-21T01:10:09;99932.47;;;20.79;16.53
42691;BME280;28306;55.744;37.578;2023-04-21T01:12:44;99932.22;;;20.80;16.23
42691;BME280;28306;55.744;37.578;2023-04-21T01:15:10;99931.25;;;20.75;16.82
42691;BME280;28306;55.744;37.578;2023-04-21T01:17:36;99928.78;;;20.73;16.74
42691;BME280;28306;55.744;37.578;2023-04-21T01:20:04;99924.34;;;20.79;16.31
42691;BME280;28306;55.744;37.578;2023-04-21T01:22:32;99920.00;;;20.78;16.55
42691;BME280;28306;55.744;37.578;2023-04-21T01:24:58;99920.78;;;20.66;16.13
42691;BME280;28306;55.744;37.578;2023-04-21T01:27:24;99915.28;;;20.55;16.75
42691;BME280;28306;55.744;37.578;2023-04-21T01:29:52;99912.69;;;20.48;16.80
42691;BME280;28306;55.744;37.578;2023-04-21T01:32:19;99916.22;;;20.48;16.54
42691;BME280;28306;55.744;37.578;2023-04-21T01:34:45;99916.13;;;20.55;16.66
42691;BME280;28306;55.744;37.578;2023-04-21T01:37:12;99916.72;;;20.57;16.21
42691;BME280;28306;55.744;37.578;2023-04-21T01:39:38;99918.50;;;20.63;17.03
42691;BME280;28306;55.744;37.578;2023-04-21T01:42:04;99916.94;;;20.74;16.54
42691;BME280;28306;55.744;37.578;2023-04-21T01:44:30;99920.09;;;20.71;16.35
42691;BME280;28306;55.744;37.578;2023-04-21T01:46:57;99915.44;;;20.60;16.77
42691;BME280;28306;55.744;37.578;2023-04-21T01:49:22;99918.50;;;20.63;16.46
42691;BME280;28306;55.744;37.578;2023-04-21T01:51:48;99912.00;;;20.52;16.63
42691;BME280;28306;55.744;37.578;2023-04-21T01:54:13;99921.34;;;20.38;16.89
42691;BME280;28306;55.744;37.578;2023-04-21T01:56:39;99912.94;;;20.28;17.17
42691;BME280;28306;55.744;37.578;2023-04-21T01:59:04;99916.34;;;20.23;17.23
42691;BME280;28306;55.744;37.578;2023-04-21T02:01:30;99915.19;;;20.31;16.85
42691;BME280;28306;55.744;37.578;2023-04-21T02:03:55;99914.31;;;20.19;16.99
42691;BME280;28306;55.744;37.578;2023-04-21T02:06:21;99921.47;;;20.13;16.91
42691;BME280;28306;55.744;37.578;2023-04-21T02:08:46;99922.88;;;20.15;16.94
42691;BME280;28306;55.744;37.578;2023-04-21T02:11:12;99917.69;;;20.14;17.33
42691;BME280;28306;55.744;37.578;2023-04-21T02:13:39;99916.34;;;20.23;16.72
42691;BME280;28306;55.744;37.578;2023-04-21T02:16:04;99912.28;;;20.32;16.37
42691;BME280;28306;55.744;37.578;2023-04-21T02:18:30;99914.53;;;20.35;16.95
42691;BME280;28306;55.744;37.578;2023-04-21T02:20:56;99918.56;;;20.45;16.93
42691;BME280;28306;55.744;37.578;2023-04-21T02:23:21;99921.94;;;20.40;17.10
42691;BME280;28306;55.744;37.578;2023-04-21T02:25:47;99915.16;;;20.19;16.59
42691;BME280;28306;55.744;37.578;2023-04-21T02:28:12;99922.97;;;19.90;17.48
42691;BME280;28306;55.744;37.578;2023-04-21T02:30:38;99920.88;;;19.92;17.30
42691;BME280;28306;55.744;37.578;2023-04-21T02:33:03;99924.09;;;20.01;17.34
42691;BME280;28306;55.744;37.578;2023-04-21T02:35:29;99919.50;;;20.20;17.22
42691;BME280;28306;55.744;37.578;2023-04-21T02:37:56;99922.72;;;20.29;17.06
42691;BME280;28306;55.744;37.578;2023-04-21T02:40:21;99921.44;;;20.31;17.12
42691;BME280;28306;55.744;37.578;2023-04-21T02:42:47;99925.78;;;20.32;17.35
42691;BME280;28306;55.744;37.578;2023-04-21T02:45:12;99921.94;;;20.40;16.98
42691;BME280;28306;55.744;37.578;2023-04-21T02:47:38;99919.91;;;20.35;16.66
42691;BME280;28306;55.744;37.578;2023-04-21T02:50:04;99924.84;;;20.27;16.86
42691;BME280;28306;55.744;37.578;2023-04-21T02:52:34;99925.19;;;20.30;17.04
42691;BME280;28306;55.744;37.578;2023-04-21T02:54:59;99922.06;;;20.15;16.82
42691;BME280;28306;55.744;37.578;2023-04-21T02:57:25;99921.91;;;20.10;17.39
42691;BME280;28306;55.744;37.578;2023-04-21T02:59:50;99922.72;;;20.29;17.27
42691;BME280;28306;55.744;37.578;2023-04-21T03:02:16;99915.63;;;20.46;17.13
42691;BME280;28306;55.744;37.578;2023-04-21T03:04:41;99922.22;;;20.50;16.95
42691;BME280;28306;55.744;37.578;2023-04-21T03:07:15;99918.19;;;20.41;17.03
42691;BME280;28306;55.744;37.578;2023-04-21T03:09:41;99917.84;;;20.38;17.60
42691;BME280;28306;55.744;37.578;2023-04-21T03:12:06;99925.94;;;20.38;17.42
42691;BME280;28306;55.744;37.578;2023-04-21T03:14:34;99920.66;;;20.43;16.90
42691;BME280;28306;55.744;37.578;2023-04-21T03:17:00;99927.34;;;20.40;16.92
42691;BME280;28306;55.744;37.578;2023-04-21T03:19:25;99926.00;;;20.31;16.86
42691;BME280;28306;55.744;37.578;2023-04-21T03:21:51;99932.03;;;20.33;17.06
42691;BME280;28306;55.744;37.578;2023-04-21T03:24:16;99930.28;;;20.39;17.23
42691;BME280;28306;55.744;37.578;2023-04-21T03:26:42;99927.19;;;20.53;16.79
42691;BME280;28306;55.744;37.578;2023-04-21T03:29:07;99937.88;;;20.60;17.33
42691;BME280;28306;55.744;37.578;2023-04-21T03:31:33;99937.88;;;20.60;16.56
42691;BME280;28306;55.744;37.578;2023-04-21T03:33:58;99935.22;;;20.42;17.10
42691;BME280;28306;55.744;37.578;2023-04-21T03:36:24;99939.63;;;20.55;17.08
42691;BME280;28306;55.744;37.578;2023-04-21T03:38:50;99936.63;;;20.63;17.11
42691;BME280;28306;55.744;37.578;2023-04-21T03:41:15;99934.84;;;20.57;17.19
42691;BME280;28306;55.744;37.578;2023-04-21T03:43:41;99934.41;;;20.41;17.32
42691;BME280;28306;55.744;37.578;2023-04-21T03:46:06;99927.44;;;20.33;17.16
42691;BME280;28306;55.744;37.578;2023-04-21T03:48:32;99930.16;;;20.33;17.14
42691;BME280;28306;55.744;37.578;2023-04-21T03:50:57;99932.28;;;20.43;17.12
42691;BME280;28306;55.744;37.578;2023-04-21T03:53:23;99931.94;;;20.40;16.85
42691;BME280;28306;55.744;37.578;2023-04-21T03:55:49;99931.94;;;20.40;17.43
42691;BME280;28306;55.744;37.578;2023-04-21T03:58:15;99925.06;;;20.56;17.05
42691;BME280;28306;55.744;37.578;2023-04-21T04:00:40;99928.66;;;20.68;17.10
42691;BME280;28306;55.744;37.578;2023-04-21T04:03:06;99931.09;;;20.88;17.16
42691;BME280;28306;55.744;37.578;2023-04-21T04:05:31;99926.94;;;20.85;17.35
42691;BME280;28306;55.744;37.578;2023-04-21T04:07:57;99932.69;;;20.77;17.10
42691;BME280;28306;55.744;37.578;2023-04-21T04:10:22;99923.19;;;20.86;17.32
42691;BME280;28306;55.744;37.578;2023-04-21T04:12:48;99922.84;;;20.95;16.63
42691;BME280;28306;55.744;37.578;2023-04-21T04:15:13;99919.81;;;20.91;16.92
42691;BME280;28306;55.744;37.578;2023-04-21T04:17:39;99922.75;;;20.90;17.46
42691;BME280;28306;55.744;37.578;2023-04-21T04:20:05;99920.75;;;21.09;17.16
42691;BME280;28306;55.744;37.578;2023-04-21T04:22:32;99917.34;;;21.01;16.84
42691;BME280;28306;55.744;37.578;2023-04-21T04:24:58;99917.69;;;20.93;16.97
42691;BME280;28306;55.744;37.578;2023-04-21T04:27:25;99919.69;;;20.98;16.66
42691;BME280;28306;55.744;37.578;2023-04-21T04:29:51;99913.81;;;21.13;17.31
42691;BME280;28306;55.744;37.578;2023-04-21T04:32:17;99917.72;;;21.40;16.60
42691;BME280;28306;55.744;37.578;2023-04-21T04:34:42;99922.09;;;21.53;16.73
42691;BME280;28306;55.744;37.578;2023-04-21T04:37:08;99929.03;;;21.61;16.42
42691;BME280;28306;55.744;37.578;2023-04-21T04:39:35;99919.84;;;21.74;15.94
42691;BME280;28306;55.744;37.578;2023-04-21T04:42:01;99919.84;;;21.74;16.40
42691;BME280;28306;55.744;37.578;2023-04-21T04:44:28;99923.75;;;21.66;16.39
42691;BME280;28306;55.744;37.578;2023-04-21T04:46:53;99926.34;;;21.61;17.02
42691;BME280;28306;55.744;37.578;2023-04-21T04:49:19;99921.16;;;21.71;16.34
42691;BME280;28306;55.744;37.578;2023-04-21T04:51:44;99921.50;;;21.75;16.39
42691;BME280;28306;55.744;37.578;2023-04-21T04:54:10;99922.22;;;21.82;16.46
42691;BME280;28306;55.744;37.578;2023-04-21T04:56:35;99919.00;;;21.97;16.25
42691;BME280;28306;55.744;37.578;2023-04-21T04:59:01;99917.13;;;21.98;16.31
42691;BME280;28306;55.744;37.578;2023-04-21T05:01:27;99914.75;;;21.89;16.69
42691;BME280;28306;55.744;37.578;2023-04-21T05:03:55;99910.00;;;22.08;15.69
42691;BME280;28306;55.744;37.578;2023-04-21T05:06:21;99910.78;;;22.21;16.09
42691;BME280;28306;55.744;37.578;2023-04-21T05:08:47;99906.78;;;22.35;16.09
42691;BME280;28306;55.744;37.578;2023-04-21T05:11:12;99879.78;;;22.28;16.11
42691;BME280;28306;55.744;37.578;2023-04-21T05:13:38;99909.75;;;22.50;15.67
42691;BME280;28306;55.744;37.578;2023-04-21T05:16:03;99901.31;;;22.47;16.36
42691;BME280;28306;55.744;37.578;2023-04-21T05:18:29;99910.28;;;22.64;16.16
42691;BME280;28306;55.744;37.578;2023-04-21T05:20:54;99896.97;;;22.63;15.73
42691;BME280;28306;55.744;37.578;2023-04-21T05:23:20;99902.16;;;22.64;15.78
42691;BME280;28306;55.744;37.578;2023-04-21T05:25:46;99898.53;;;22.76;15.29
42691;BME280;28306;55.744;37.578;2023-04-21T05:28:11;99895.91;;;22.64;15.36
42691;BME280;28306;55.744;37.578;2023-04-21T05:30:37;99894.69;;;22.43;15.63
42691;BME280;28306;55.744;37.578;2023-04-21T05:33:02;99890.41;;;22.30;15.63
42691;BME280;28306;55.744;37.578;2023-04-21T05:35:31;99887.81;;;22.23;15.63
42691;BME280;28306;55.744;37.578;2023-04-21T05:37:56;99895.13;;;22.23;15.57
42691;BME280;28306;55.744;37.578;2023-04-21T05:40:22;99890.19;;;22.20;15.85
42691;BME280;28306;55.744;37.578;2023-04-21T05:42:47;99891.50;;;22.17;15.76
42691;BME280;28306;55.744;37.578;2023-04-21T05:45:13;99890.06;;;22.14;15.14
42691;BME280;28306;55.744;37.578;2023-04-21T05:47:38;99889.03;;;22.16;15.39
42691;BME280;28306;55.744;37.578;2023-04-21T05:50:04;99894.91;;;22.12;15.49
42691;BME280;28306;55.744;37.578;2023-04-21T05:52:30;99888.44;;;22.13;15.04
42691;BME280;28306;55.744;37.578;2023-04-21T05:54:56;99887.13;;;22.16;16.06
42691;BME280;28306;55.744;37.578;2023-04-21T05:57:23;99886.03;;;22.29;15.18
42691;BME280;28306;55.744;37.578;2023-04-21T05:59:49;99876.81;;;22.42;15.23
42691;BME280;28306;55.744;37.578;2023-04-21T06:02:14;99880.78;;;22.51;15.08
42691;BME280;28306;55.744;37.578;2023-04-21T06:04:39;99885.84;;;22.47;14.99
42691;BME280;28306;55.744;37.578;2023-04-21T06:07:05;99879.56;;;22.30;15.55
42691;BME280;28306;55.744;37.578;2023-04-21T06:09:32;99880.00;;;22.27;15.58
42691;BME280;28306;55.744;37.578;2023-04-21T06:11:57;99877.44;;;22.32;15.44
42691;BME280;28306;55.744;37.578;2023-04-21T06:14:23;99880.41;;;22.47;15.21
42691;BME280;28306;55.744;37.578;2023-04-21T06:16:48;99881.78;;;22.62;15.59
42691;BME280;28306;55.744;37.578;2023-04-21T06:19:14;99870.44;;;22.82;14.97
42691;BME280;28306;55.744;37.578;2023-04-21T06:21:39;99865.00;;;22.82;15.32
42691;BME280;28306;55.744;37.578;2023-04-21T06:24:05;99873.91;;;22.94;15.53
42691;BME280;28306;55.744;37.578;2023-04-21T06:26:30;99871.59;;;23.03;15.07
42691;BME280;28306;55.744;37.578;2023-04-21T06:28:56;99873.81;;;23.06;15.20
42691;BME280;28306;55.744;37.578;2023-04-21T06:31:21;99876.97;;;22.98;15.21
42691;BME280;28306;55.744;37.578;2023-04-21T06:33:47;99871.09;;;22.89;15.09
42691;BME280;28306;55.744;37.578;2023-04-21T06:36:12;99874.38;;;22.91;15.43
42691;BME280;28306;55.744;37.578;2023-04-21T06:38:38;99869.56;;;23.10;15.41
42691;BME280;28306;55.744;37.578;2023-04-21T06:41:07;99864.47;;;23.31;15.33
42691;BME280;28306;55.744;37.578;2023-04-21T06:43:33;99859.91;;;23.36;14.94
42691;BME280;28306;55.744;37.578;2023-04-21T06:45:58;99864.53;;;23.36;15.77
42691;BME280;28306;55.744;37.578;2023-04-21T06:48:24;99859.72;;;23.43;14.74
42691;BME280;28306;55.744;37.578;2023-04-21T06:50:50;99860.75;;;23.37;15.15
42691;BME280;28306;55.744;37.578;2023-04-21T06:53:16;99851.44;;;23.33;15.03
42691;BME280;28306;55.744;37.578;2023-04-21T06:55:44;99853.84;;;23.29;15.47
42691;BME280;28306;55.744;37.578;2023-04-21T06:58:09;99850.44;;;23.39;15.38
42691;BME280;28306;55.744;37.578;2023-04-21T07:00:35;99854.94;;;23.50;15.27
42691;BME280;28306;55.744;37.578;2023-04-21T07:03:01;99856.22;;;23.65;15.23
42691;BME280;28306;55.744;37.578;2023-04-21T07:05:26;99857.41;;;23.74;15.02
42691;BME280;28306;55.744;37.578;2023-04-21T07:07:52;99844.00;;;23.84;14.38
42691;BME280;28306;55.744;37.578;2023-04-21T07:10:21;99837.00;;;23.71;14.83
42691;BME280;28306;55.744;37.578;2023-04-21T07:12:46;99836.94;;;23.66;15.18
42691;BME280;28306;55.744;37.578;2023-04-21T07:15:11;99839.13;;;23.86;15.39
42691;BME280;28306;55.744;37.578;2023-04-21T07:17:37;99837.34;;;23.97;14.16
42691;BME280;28306;55.744;37.578;2023-04-21T07:20:03;99847.97;;;23.99;14.91
42691;BME280;28306;55.744;37.578;2023-04-21T07:22:28;99835.19;;;23.99;14.51
42691;BME280;28306;55.744;37.578;2023-04-21T07:24:54;99835.84;;;24.06;14.83
42691;BME280;28306;55.744;37.578;2023-04-21T07:27:19;99835.31;;;24.09;14.46
42691;BME280;28306;55.744;37.578;2023-04-21T07:29:45;99829.56;;;24.06;14.40
42691;BME280;28306;55.744;37.578;2023-04-21T07:32:10;99831.41;;;24.00;14.27
42691;BME280;28306;55.744;37.578;2023-04-21T07:34:35;99837.66;;;24.01;14.42
42691;BME280;28306;55.744;37.578;2023-04-21T07:37:01;99830.59;;;24.00;14.58
42691;BME280;28306;55.744;37.578;2023-04-21T07:39:26;99829.50;;;24.01;14.41
42691;BME280;28306;55.744;37.578;2023-04-21T07:41:52;99834.09;;;23.95;13.86
42691;BME280;28306;55.744;37.578;2023-04-21T07:44:18;99819.56;;;23.84;14.01
42691;BME280;28306;55.744;37.578;2023-04-21T07:46:43;99823.81;;;23.80;14.11
42691;BME280;28306;55.744;37.578;2023-04-21T07:49:09;99817.13;;;23.88;14.53
42691;BME280;28306;55.744;37.578;2023-04-21T07:51:34;99815.06;;;23.95;14.28
42691;BME280;28306;55.744;37.578;2023-04-21T07:54:00;99817.28;;;23.98;14.01
42691;BME280;28306;55.744;37.578;2023-04-21T07:56:26;99819.56;;;23.84;14.10
42691;BME280;28306;55.744;37.578;2023-04-21T07:58:51;99814.47;;;23.71;13.82
42691;BME280;28306;55.744;37.578;2023-04-21T08:01:16;99815.72;;;23.63;14.30
42691;BME280;28306;55.744;37.578;2023-04-21T08:03:42;99803.25;;;23.62;14.03
42691;BME280;28306;55.744;37.578;2023-04-21T08:06:07;99809.47;;;23.63;13.92
42691;BME280;28306;55.744;37.578;2023-04-21T08:08:33;99796.91;;;23.56;14.34
42691;BME280;28306;55.744;37.578;2023-04-21T08:10:58;99796.09;;;23.56;14.18
42691;BME280;28306;55.744;37.578;2023-04-21T08:13:24;99796.09;;;23.56;14.05
42691;BME280;28306;55.744;37.578;2023-04-21T08:15:50;99795.75;;;23.52;14.10
42691;BME280;28306;55.744;37.578;2023-04-21T08:18:15;99780.22;;;23.48;14.05
42691;BME280;28306;55.744;37.578;2023-04-21T08:20:43;99792.03;;;23.36;14.17
42691;BME280;28306;55.744;37.578;2023-04-21T08:23:09;99753.72;;;23.11;14.20
42691;BME280;28306;55.744;37.578;2023-04-21T08:25:34;99779.22;;;23.32;14.85
42691;BME280;28306;55.744;37.578;2023-04-21T08:28:00;99771.06;;;23.54;14.59
42691;BME280;28306;55.744;37.578;2023-04-21T08:30:26;99777.19;;;23.66;14.51
42691;BME280;28306;55.744;37.578;2023-04-21T08:32:52;99768.50;;;23.86;14.73
42691;BME280;28306;55.744;37.578;2023-04-21T08:35:17;99763.81;;;24.09;14.50
42691;BME280;28306;55.744;37.578;2023-04-21T08:37:42;99774.06;;;24.29;14.50
42691;BME280;28306;55.744;37.578;2023-04-21T08:40:09;99779.84;;;24.38;14.50
42691;BME280;28306;55.744;37.578;2023-04-21T08:42:35;99767.25;;;24.26;14.29
42691;BME280;28306;55.744;37.578;2023-04-21T08:45:02;99779.03;;;24.37;14.55
42691;BME280;28306;55.744;37.578;2023-04-21T08:47:27;99762.44;;;24.39;14.28
42691;BME280;28306;55.744;37.578;2023-04-21T08:49:53;99771.75;;;24.43;14.37
42691;BME280;28306;55.744;37.578;2023-04-21T08:52:18;99753.78;;;24.42;14.24
42691;BME280;28306;55.744;37.578;2023-04-21T08:54:44;99747.28;;;24.48;14.45
42691;BME280;28306;55.744;37.578;2023-04-21T08:57:11;99753.91;;;24.57;14.42
42691;BME280;28306;55.744;37.578;2023-04-21T08:59:36;99737.91;;;24.61;14.57
42691;BME280;28306;55.744;37.578;2023-04-21T09:02:12;99731.72;;;24.71;14.94
42691;BME280;28306;55.744;37.578;2023-04-21T09:04:39;99736.22;;;24.92;14.65
42691;BME280;28306;55.744;37.578;2023-04-21T09:07:05;99733.16;;;24.83;14.10
42691;BME280;28306;55.744;37.578;2023-04-21T09:09:33;99736.81;;;24.62;14.47
42691;BME280;28306;55.744;37.578;2023-04-21T09:11:58;99726.31;;;24.43;13.94
42691;BME280;28306;55.744;37.578;2023-04-21T09:14:28;99714.03;;;24.36;15.01
42691;BME280;28306;55.744;37.578;2023-04-21T09:16:59;99722.13;;;24.58;14.96
42691;BME280;28306;55.744;37.578;2023-04-21T09:19:28;99720.84;;;24.71;15.03
42691;BME280;28306;55.744;37.578;2023-04-21T09:21:54;99712.41;;;24.72;14.45
42691;BME280;28306;55.744;37.578;2023-04-21T09:24:19;99720.75;;;24.60;14.41
42691;BME280;28306;55.744;37.578;2023-04-21T09:26:48;99722.25;;;24.46;14.42
42691;BME280;28306;55.744;37.578;2023-04-21T09:29:14;99722.72;;;24.33;14.43
42691;BME280;28306;55.744;37.578;2023-04-21T09:31:39;99719.34;;;24.20;14.73
42691;BME280;28306;55.744;37.578;2023-04-21T09:34:15;99708.13;;;24.11;14.69
42691;BME280;28306;55.744;37.578;2023-04-21T09:36:42;99715.72;;;24.09;14.75
42691;BME280;28306;55.744;37.578;2023-04-21T09:39:08;99700.19;;;24.05;14.92
42691;BME280;28306;55.744;37.578;2023-04-21T09:41:34;99702.97;;;24.15;15.32
42691;BME280;28306;55.744;37.578;2023-04-21T09:43:59;99701.66;;;24.18;14.91
42691;BME280;28306;55.744;37.578;2023-04-21T09:46:32;99698.56;;;24.09;14.68
42691;BME280;28306;55.744;37.578;2023-04-21T09:49:01;99689.84;;;24.02;14.94
42691;BME280;28306;55.744;37.578;2023-04-21T09:51:27;99688.44;;;23.99;15.11
42691;BME280;28306;55.744;37.578;2023-04-21T09:53:56;99684.38;;;23.97;15.13
42691;BME280;28306;55.744;37.578;2023-04-21T09:56:23;99672.66;;;23.96;15.18
42691;BME280;28306;55.744;37.578;2023-04-21T09:58:53;99688.31;;;24.16;15.32
42691;BME280;28306;55.744;37.578;2023-04-21T10:01:19;99676.44;;;24.27;15.18
42691;BME280;28306;55.744;37.578;2023-04-21T10:03:45;99670.19;;;24.27;14.96
42691;BME280;28306;55.744;37.578;2023-04-21T10:06:11;99675.69;;;24.37;15.43
42691;BME280;28306;55.744;37.578;2023-04-21T10:08:37;99658.59;;;24.42;15.28
42691;BME280;28306;55.744;37.578;2023-04-21T10:11:03;99661.28;;;24.37;15.42
42691;BME280;28306;55.744;37.578;2023-04-21T10:13:29;99660.47;;;24.36;15.39
42691;BME280;28306;55.744;37.578;2023-04-21T10:16:05;99656.38;;;24.34;15.29
42691;BME280;28306;55.744;37.578;2023-04-21T10:18:34;99657.81;;;24.46;15.50
42691;BME280;28306;55.744;37.578;2023-04-21T10:21:02;99658.38;;;24.49;15.09
42691;BME280;28306;55.744;37.578;2023-04-21T10:23:38;99657.81;;;24.46;15.08
42691;BME280;28306;55.744;37.578;2023-04-21T10:26:11;99646.88;;;24.36;14.88
42691;BME280;28306;55.744;37.578;2023-04-21T10:36:41;99635.22;;;24.46;15.01
42691;BME280;28306;55.744;37.578;2023-04-21T10:39:07;99640.16;;;24.49;15.63
42691;BME280;28306;55.744;37.578;2023-04-21T10:41:33;99644.59;;;24.60;14.96
42691;BME280;28306;55.744;37.578;2023-04-21T10:43:59;99640.25;;;24.59;15.00
42691;BME280;28306;55.744;37.578;2023-04-21T10:54:24;99618.50;;;24.59;15.33
42691;BME280;28306;55.744;37.578;2023-04-21T10:56:50;99608.22;;;24.77;15.51
42691;BME280;28306;55.744;37.578;2023-04-21T10:59:17;99616.47;;;24.97;15.39
42691;BME280;28306;55.744;37.578;2023-04-21T11:01:42;99617.34;;;25.13;15.26
42691;BME280;28306;55.744;37.578;2023-04-21T11:04:15;99611.09;;;25.23;15.07
42691;BME280;28306;55.744;37.578;2023-04-21T11:06:40;99608.97;;;25.30;15.23
42691;BME280;28306;55.744;37.578;2023-04-21T11:09:06;99614.09;;;25.22;14.88
42691;BME280;28306;55.744;37.578;2023-04-21T11:11:31;99616.81;;;25.16;15.21
42691;BME280;28306;55.744;37.578;2023-04-21T11:14:00;99611.91;;;25.13;15.13
42691;BME280;28306;55.744;37.578;2023-04-21T11:16:26;99612.16;;;25.07;15.03
42691;BME280;28306;55.744;37.578;2023-04-21T11:18:51;99609.09;;;24.93;15.00
42691;BME280;28306;55.744;37.578;2023-04-21T11:21:17;99611.31;;;24.96;15.21
42691;BME280;28306;55.744;37.578;2023-04-21T11:23:54;99613.75;;;25.03;15.13
42691;BME280;28306;55.744;37.578;2023-04-21T11:26:33;99602.88;;;24.97;14.93
42691;BME280;28306;55.744;37.578;2023-04-21T11:29:00;99611.50;;;24.79;15.29
42691;BME280;28306;55.744;37.578;2023-04-21T11:31:28;99588.59;;;24.70;15.22
42691;BME280;28306;55.744;37.578;2023-04-21T11:33:55;99588.91;;;24.78;15.47
42691;BME280;28306;55.744;37.578;2023-04-21T11:36:20;99581.91;;;24.93;15.30
42691;BME280;28306;55.744;37.578;2023-04-21T11:38:46;99577.03;;;25.05;15.34
42691;BME280;28306;55.744;37.578;2023-04-21T11:41:12;99579.81;;;25.26;15.64
42691;BME280;28306;55.744;37.578;2023-04-21T11:43:44;99581.78;;;25.51;15.42
42691;BME280;28306;55.744;37.578;2023-04-21T11:48:42;99563.25;;;25.73;15.17
42691;BME280;28306;55.744;37.578;2023-04-21T11:51:17;99570.06;;;25.71;14.64
42691;BME280;28306;55.744;37.578;2023-04-21T11:53:45;99575.78;;;25.64;14.87
42691;BME280;28306;55.744;37.578;2023-04-21T11:56:10;99571.69;;;25.51;14.95
42691;BME280;28306;55.744;37.578;2023-04-21T11:58:36;99569.50;;;25.43;14.90
42691;BME280;28306;55.744;37.578;2023-04-21T12:01:08;99560.78;;;25.46;14.75
42691;BME280;28306;55.744;37.578;2023-04-21T12:03:34;99556.72;;;25.49;14.71
42691;BME280;28306;55.744;37.578;2023-04-21T12:05:59;99558.88;;;25.47;14.81
42691;BME280;28306;55.744;37.578;2023-04-21T12:08:27;99543.34;;;25.52;15.27
42691;BME280;28306;55.744;37.578;2023-04-21T12:10:53;99546.34;;;25.66;14.71
42691;BME280;28306;55.744;37.578;2023-04-21T12:13:22;99541.44;;;25.79;14.61
42691;BME280;28306;55.744;37.578;2023-04-21T12:15:47;99553.16;;;25.84;14.50
42691;BME280;28306;55.744;37.578;2023-04-21T12:18:13;99544.72;;;25.81;14.41
42691;BME280;28306;55.744;37.578;2023-04-21T12:20:47;99542.53;;;25.72;14.33
42691;BME280;28306;55.744;37.578;2023-04-21T12:23:12;99539.28;;;25.76;14.33
42691;BME280;28306;55.744;37.578;2023-04-21T12:25:38;99545.78;;;25.80;14.78
42691;BME280;28306;55.744;37.578;2023-04-21T12:28:03;99530.25;;;25.90;14.43
42691;BME280;28306;55.744;37.578;2023-04-21T12:30:32;99531.63;;;26.03;14.27
42691;BME280;28306;55.744;37.578;2023-04-21T12:32:57;99521.75;;;26.93;13.32
42691;BME280;28306;55.744;37.578;2023-04-21T12:35:24;99536.19;;;28.56;12.44
42691;BME280;28306;55.744;37.578;2023-04-21T12:37:49;99538.84;;;29.75;11.46
42691;BME280;28306;55.744;37.578;2023-04-21T12:40:15;99532.22;;;30.23;11.10
42691;BME280;28306;55.744;37.578;2023-04-21T12:42:40;99538.31;;;29.40;11.53
42691;BME280;28306;55.744;37.578;2023-04-21T12:45:06;99534.97;;;29.43;11.75
42691;BME280;28306;55.744;37.578;2023-04-21T12:47:31;99519.84;;;30.53;11.91
42691;BME280;28306;55.744;37.578;2023-04-21T12:49:57;99516.03;;;31.36;11.09
42691;BME280;28306;55.744;37.578;2023-04-21T12:52:22;99516.41;;;31.97;10.44
42691;BME280;28306;55.744;37.578;2023-04-21T12:54:48;99525.25;;;32.57;9.97
42691;BME280;28306;55.744;37.578;2023-04-21T12:57:13;99518.50;;;32.90;9.59
42691;BME280;28306;55.744;37.578;2023-04-21T12:59:39;99519.81;;;33.27;9.11
42691;BME280;28306;55.744;37.578;2023-04-21T13:02:05;99516.34;;;33.65;9.17
42691;BME280;28306;55.744;37.578;2023-04-21T13:04:31;99506.06;;;33.92;8.77